sensor_id;sensor_type;location;lat;lon;timestamp;P1;durP1;ratioP1;P2;durP2;ratioP2
43088;SDS011;28709;52.030;5.652;2023-12-29T00:02:07;9.70;;;1.70;;
43088;SDS011;28709;52.030;5.652;2023-12-29T00:04:33;10.65;;;2.30;;
43088;SDS011;28709;52.030;5.652;2023-12-29T00:06:58;8.95;;;2.35;;
43088;SDS011;28709;52.030;5.652;2023-12-29T00:09:24;12.30;;;2.10;;
43088;SDS011;28709;52.030;5.652;2023-12-29T00:11:50;15.00;;;1.80;;
43088;SDS011;28709;52.030;5.652;2023-12-29T00:14:16;13.55;;;2.13;;
43088;SDS011;28709;52.030;5.652;2023-12-29T00:16:42;12.10;;;1.98;;
43088;SDS011;28709;52.030;5.652;2023-12-29T00:19:09;11.57;;;1.90;;
43088;SDS011;28709;52.030;5.652;2023-12-29T00:21:35;11.63;;;1.98;;
43088;SDS011;28709;52.030;5.652;2023-12-29T00:24:01;13.95;;;1.70;;
43088;SDS011;28709;52.030;5.652;2023-12-29T00:26:27;6.60;;;1.50;;
43088;SDS011;28709;52.030;5.652;2023-12-29T00:28:53;14.18;;;1.77;;
43088;SDS011;28709;52.030;5.652;2023-12-29T00:31:19;13.85;;;2.03;;
43088;SDS011;28709;52.030;5.652;2023-12-29T00:33:45;9.32;;;2.00;;
43088;SDS011;28709;52.030;5.652;2023-12-29T00:36:14;10.15;;;1.52;;
43088;SDS011;28709;52.030;5.652;2023-12-29T00:38:41;13.27;;;2.15;;
43088;SDS011;28709;52.030;5.652;2023-12-29T00:41:06;12.55;;;2.22;;
43088;SDS011;28709;52.030;5.652;2023-12-29T00:43:32;12.73;;;2.03;;
43088;SDS011;28709;52.030;5.652;2023-12-29T00:45:58;10.90;;;1.83;;
43088;SDS011;28709;52.030;5.652;2023-12-29T00:48:23;10.27;;;2.38;;
43088;SDS011;28709;52.030;5.652;2023-12-29T00:50:49;13.13;;;2.10;;
43088;SDS011;28709;52.030;5.652;2023-12-29T00:53:14;14.43;;;2.28;;
43088;SDS011;28709;52.030;5.652;2023-12-29T00:55:40;12.32;;;2.30;;
43088;SDS011;28709;52.030;5.652;2023-12-29T00:58:06;10.77;;;2.00;;
43088;SDS011;28709;52.030;5.652;2023-12-29T01:00:31;9.85;;;2.17;;
43088;SDS011;28709;52.030;5.652;2023-12-29T01:02:57;14.38;;;2.00;;
43088;SDS011;28709;52.030;5.652;2023-12-29T01:05:23;11.30;;;2.05;;
43088;SDS011;28709;52.030;5.652;2023-12-29T01:07:49;12.05;;;2.45;;
43088;SDS011;28709;52.030;5.652;2023-12-29T01:10:14;9.70;;;1.60;;
43088;SDS011;28709;52.030;5.652;2023-12-29T01:12:40;14.18;;;2.50;;
43088;SDS011;28709;52.030;5.652;2023-12-29T01:15:05;15.98;;;2.90;;
43088;SDS011;28709;52.030;5.652;2023-12-29T01:17:31;11.88;;;2.33;;
43088;SDS011;28709;52.030;5.652;2023-12-29T01:19:57;9.43;;;1.60;;
43088;SDS011;28709;52.030;5.652;2023-12-29T01:22:23;8.90;;;1.73;;
43088;SDS011;28709;52.030;5.652;2023-12-29T01:24:48;14.90;;;2.13;;
43088;SDS011;28709;52.030;5.652;2023-12-29T01:27:14;9.38;;;1.90;;
43088;SDS011;28709;52.030;5.652;2023-12-29T01:29:39;11.73;;;1.90;;
43088;SDS011;28709;52.030;5.652;2023-12-29T01:32:05;11.45;;;1.75;;
43088;SDS011;28709;52.030;5.652;2023-12-29T01:34:33;10.52;;;1.65;;
43088;SDS011;28709;52.030;5.652;2023-12-29T01:36:59;12.15;;;2.10;;
43088;SDS011;28709;52.030;5.652;2023-12-29T01:39:27;9.55;;;1.70;;
43088;SDS011;28709;52.030;5.652;2023-12-29T01:41:54;15.52;;;1.70;;
43088;SDS011;28709;52.030;5.652;2023-12-29T01:44:21;11.40;;;1.90;;
43088;SDS011;28709;52.030;5.652;2023-12-29T01:46:50;8.50;;;2.33;;
43088;SDS011;28709;52.030;5.652;2023-12-29T01:49:18;15.20;;;2.42;;
43088;SDS011;28709;52.030;5.652;2023-12-29T01:51:46;15.43;;;2.10;;
43088;SDS011;28709;52.030;5.652;2023-12-29T01:54:24;13.30;;;2.30;;
43088;SDS011;28709;52.030;5.652;2023-12-29T01:56:53;10.00;;;1.73;;
43088;SDS011;28709;52.030;5.652;2023-12-29T01:59:21;11.82;;;2.03;;
43088;SDS011;28709;52.030;5.652;2023-12-29T02:01:47;11.15;;;2.13;;
43088;SDS011;28709;52.030;5.652;2023-12-29T02:04:13;11.07;;;2.40;;
43088;SDS011;28709;52.030;5.652;2023-12-29T02:06:40;8.65;;;1.63;;
43088;SDS011;28709;52.030;5.652;2023-12-29T02:09:06;11.57;;;1.90;;
43088;SDS011;28709;52.030;5.652;2023-12-29T02:11:32;6.10;;;1.23;;
43088;SDS011;28709;52.030;5.652;2023-12-29T02:13:58;11.65;;;1.98;;
43088;SDS011;28709;52.030;5.652;2023-12-29T02:17:08;7.55;;;1.60;;
43088;SDS011;28709;52.030;5.652;2023-12-29T02:19:36;11.32;;;2.13;;
43088;SDS011;28709;52.030;5.652;2023-12-29T02:22:06;10.52;;;1.77;;
43088;SDS011;28709;52.030;5.652;2023-12-29T02:24:35;9.70;;;1.70;;
43088;SDS011;28709;52.030;5.652;2023-12-29T02:27:18;7.88;;;1.58;;
43088;SDS011;28709;52.030;5.652;2023-12-29T02:32:47;9.88;;;1.67;;
43088;SDS011;28709;52.030;5.652;2023-12-29T02:35:18;10.93;;;1.77;;
43088;SDS011;28709;52.030;5.652;2023-12-29T02:37:47;11.80;;;2.25;;
43088;SDS011;28709;52.030;5.652;2023-12-29T02:40:14;11.35;;;1.73;;
43088;SDS011;28709;52.030;5.652;2023-12-29T02:42:49;15.20;;;2.08;;
43088;SDS011;28709;52.030;5.652;2023-12-29T02:45:15;9.40;;;2.45;;
43088;SDS011;28709;52.030;5.652;2023-12-29T02:47:42;14.82;;;2.20;;
43088;SDS011;28709;52.030;5.652;2023-12-29T02:50:08;11.27;;;1.85;;
43088;SDS011;28709;52.030;5.652;2023-12-29T02:52:34;10.68;;;1.73;;
43088;SDS011;28709;52.030;5.652;2023-12-29T02:55:00;15.98;;;2.35;;
43088;SDS011;28709;52.030;5.652;2023-12-29T02:57:25;9.65;;;2.05;;
43088;SDS011;28709;52.030;5.652;2023-12-29T02:59:51;9.75;;;2.17;;
43088;SDS011;28709;52.030;5.652;2023-12-29T03:02:17;10.15;;;2.03;;
43088;SDS011;28709;52.030;5.652;2023-12-29T03:04:42;9.93;;;1.80;;
43088;SDS011;28709;52.030;5.652;2023-12-29T03:07:09;9.60;;;1.85;;
43088;SDS011;28709;52.030;5.652;2023-12-29T03:09:34;19.70;;;2.72;;
43088;SDS011;28709;52.030;5.652;2023-12-29T03:12:00;12.85;;;2.15;;
43088;SDS011;28709;52.030;5.652;2023-12-29T03:14:26;13.77;;;2.15;;
43088;SDS011;28709;52.030;5.652;2023-12-29T03:16:51;13.07;;;2.42;;
43088;SDS011;28709;52.030;5.652;2023-12-29T03:19:17;8.95;;;2.10;;
43088;SDS011;28709;52.030;5.652;2023-12-29T03:21:42;13.15;;;2.10;;
43088;SDS011;28709;52.030;5.652;2023-12-29T03:24:08;13.13;;;2.33;;
43088;SDS011;28709;52.030;5.652;2023-12-29T03:26:34;16.58;;;3.15;;
43088;SDS011;28709;52.030;5.652;2023-12-29T03:29:00;15.95;;;2.63;;
43088;SDS011;28709;52.030;5.652;2023-12-29T03:31:26;12.32;;;2.67;;
43088;SDS011;28709;52.030;5.652;2023-12-29T03:33:51;17.15;;;2.05;;
43088;SDS011;28709;52.030;5.652;2023-12-29T03:36:17;20.25;;;3.65;;
43088;SDS011;28709;52.030;5.652;2023-12-29T03:38:43;15.38;;;2.53;;
43088;SDS011;28709;52.030;5.652;2023-12-29T03:41:08;11.70;;;2.38;;
43088;SDS011;28709;52.030;5.652;2023-12-29T03:43:34;19.95;;;2.85;;
43088;SDS011;28709;52.030;5.652;2023-12-29T03:45:59;24.55;;;3.05;;
43088;SDS011;28709;52.030;5.652;2023-12-29T03:48:25;18.85;;;3.20;;
43088;SDS011;28709;52.030;5.652;2023-12-29T03:50:51;10.82;;;1.98;;
43088;SDS011;28709;52.030;5.652;2023-12-29T03:53:16;15.48;;;2.35;;
43088;SDS011;28709;52.030;5.652;2023-12-29T03:55:42;13.30;;;2.22;;
43088;SDS011;28709;52.030;5.652;2023-12-29T03:58:08;17.00;;;2.83;;
43088;SDS011;28709;52.030;5.652;2023-12-29T04:00:34;17.50;;;2.88;;
43088;SDS011;28709;52.030;5.652;2023-12-29T04:03:00;16.98;;;3.50;;
43088;SDS011;28709;52.030;5.652;2023-12-29T04:05:26;20.20;;;3.28;;
43088;SDS011;28709;52.030;5.652;2023-12-29T04:07:52;20.15;;;2.75;;
43088;SDS011;28709;52.030;5.652;2023-12-29T04:10:17;20.92;;;3.15;;
43088;SDS011;28709;52.030;5.652;2023-12-29T04:12:43;17.70;;;2.80;;
43088;SDS011;28709;52.030;5.652;2023-12-29T04:15:08;18.45;;;3.28;;
43088;SDS011;28709;52.030;5.652;2023-12-29T04:17:34;15.98;;;2.60;;
43088;SDS011;28709;52.030;5.652;2023-12-29T04:20:00;20.75;;;3.05;;
43088;SDS011;28709;52.030;5.652;2023-12-29T04:22:25;19.15;;;2.42;;
43088;SDS011;28709;52.030;5.652;2023-12-29T04:24:51;24.67;;;4.25;;
43088;SDS011;28709;52.030;5.652;2023-12-29T04:27:17;17.85;;;2.90;;
43088;SDS011;28709;52.030;5.652;2023-12-29T04:29:46;25.13;;;2.78;;
43088;SDS011;28709;52.030;5.652;2023-12-29T04:32:11;13.57;;;2.88;;
43088;SDS011;28709;52.030;5.652;2023-12-29T04:34:37;19.13;;;2.70;;
43088;SDS011;28709;52.030;5.652;2023-12-29T04:37:02;23.85;;;3.22;;
43088;SDS011;28709;52.030;5.652;2023-12-29T04:39:28;20.23;;;3.00;;
43088;SDS011;28709;52.030;5.652;2023-12-29T04:41:54;13.93;;;2.47;;
43088;SDS011;28709;52.030;5.652;2023-12-29T04:44:19;16.98;;;3.17;;
43088;SDS011;28709;52.030;5.652;2023-12-29T04:46:45;19.40;;;2.88;;
43088;SDS011;28709;52.030;5.652;2023-12-29T04:49:10;15.73;;;2.25;;
43088;SDS011;28709;52.030;5.652;2023-12-29T04:51:36;22.23;;;3.83;;
43088;SDS011;28709;52.030;5.652;2023-12-29T04:54:02;12.65;;;2.40;;
43088;SDS011;28709;52.030;5.652;2023-12-29T04:56:27;21.02;;;3.58;;
43088;SDS011;28709;52.030;5.652;2023-12-29T04:58:53;20.05;;;2.55;;
43088;SDS011;28709;52.030;5.652;2023-12-29T05:01:19;22.00;;;2.72;;
43088;SDS011;28709;52.030;5.652;2023-12-29T05:03:44;20.67;;;3.08;;
43088;SDS011;28709;52.030;5.652;2023-12-29T05:06:10;21.83;;;3.92;;
43088;SDS011;28709;52.030;5.652;2023-12-29T05:08:35;18.08;;;2.95;;
43088;SDS011;28709;52.030;5.652;2023-12-29T05:11:01;20.85;;;3.03;;
43088;SDS011;28709;52.030;5.652;2023-12-29T05:13:27;24.50;;;3.05;;
43088;SDS011;28709;52.030;5.652;2023-12-29T05:15:52;17.63;;;3.13;;
43088;SDS011;28709;52.030;5.652;2023-12-29T05:18:18;23.13;;;3.13;;
43088;SDS011;28709;52.030;5.652;2023-12-29T05:20:43;16.38;;;2.83;;
43088;SDS011;28709;52.030;5.652;2023-12-29T05:23:09;20.85;;;2.83;;
43088;SDS011;28709;52.030;5.652;2023-12-29T05:25:35;15.40;;;2.95;;
43088;SDS011;28709;52.030;5.652;2023-12-29T05:28:00;22.98;;;2.75;;
43088;SDS011;28709;52.030;5.652;2023-12-29T05:30:26;21.88;;;2.60;;
43088;SDS011;28709;52.030;5.652;2023-12-29T05:32:52;28.25;;;4.25;;
43088;SDS011;28709;52.030;5.652;2023-12-29T05:35:18;18.02;;;2.83;;
43088;SDS011;28709;52.030;5.652;2023-12-29T05:37:44;18.48;;;3.00;;
43088;SDS011;28709;52.030;5.652;2023-12-29T05:40:10;15.50;;;2.65;;
43088;SDS011;28709;52.030;5.652;2023-12-29T05:42:36;21.38;;;3.13;;
43088;SDS011;28709;52.030;5.652;2023-12-29T05:45:01;19.15;;;3.15;;
43088;SDS011;28709;52.030;5.652;2023-12-29T05:47:27;18.83;;;3.22;;
43088;SDS011;28709;52.030;5.652;2023-12-29T05:49:53;19.08;;;3.10;;
43088;SDS011;28709;52.030;5.652;2023-12-29T05:52:18;22.20;;;4.25;;
43088;SDS011;28709;52.030;5.652;2023-12-29T05:54:44;20.55;;;2.92;;
43088;SDS011;28709;52.030;5.652;2023-12-29T05:57:10;18.48;;;3.00;;
43088;SDS011;28709;52.030;5.652;2023-12-29T05:59:35;19.67;;;3.10;;
43088;SDS011;28709;52.030;5.652;2023-12-29T06:02:01;22.90;;;3.28;;
43088;SDS011;28709;52.030;5.652;2023-12-29T06:04:27;20.17;;;3.47;;
43088;SDS011;28709;52.030;5.652;2023-12-29T06:06:53;25.23;;;3.03;;
43088;SDS011;28709;52.030;5.652;2023-12-29T06:09:19;15.82;;;2.65;;
43088;SDS011;28709;52.030;5.652;2023-12-29T06:11:44;17.83;;;2.10;;
43088;SDS011;28709;52.030;5.652;2023-12-29T06:14:10;15.30;;;3.25;;
43088;SDS011;28709;52.030;5.652;2023-12-29T06:16:36;12.88;;;2.13;;
43088;SDS011;28709;52.030;5.652;2023-12-29T06:19:01;23.05;;;3.45;;
43088;SDS011;28709;52.030;5.652;2023-12-29T06:21:27;13.52;;;3.00;;
43088;SDS011;28709;52.030;5.652;2023-12-29T06:23:53;14.57;;;2.47;;
43088;SDS011;28709;52.030;5.652;2023-12-29T06:26:19;19.63;;;2.92;;
43088;SDS011;28709;52.030;5.652;2023-12-29T06:28:46;11.48;;;2.40;;
43088;SDS011;28709;52.030;5.652;2023-12-29T06:31:12;20.65;;;2.88;;
43088;SDS011;28709;52.030;5.652;2023-12-29T06:33:44;14.32;;;2.65;;
43088;SDS011;28709;52.030;5.652;2023-12-29T06:36:10;20.23;;;2.65;;
43088;SDS011;28709;52.030;5.652;2023-12-29T06:38:36;13.45;;;2.00;;
43088;SDS011;28709;52.030;5.652;2023-12-29T06:41:03;19.13;;;2.30;;
43088;SDS011;28709;52.030;5.652;2023-12-29T06:43:29;14.25;;;2.97;;
43088;SDS011;28709;52.030;5.652;2023-12-29T06:45:55;11.15;;;2.00;;
43088;SDS011;28709;52.030;5.652;2023-12-29T06:48:21;19.17;;;3.03;;
43088;SDS011;28709;52.030;5.652;2023-12-29T06:50:47;15.45;;;2.60;;
43088;SDS011;28709;52.030;5.652;2023-12-29T06:53:12;13.23;;;2.85;;
43088;SDS011;28709;52.030;5.652;2023-12-29T06:55:38;14.15;;;2.50;;
43088;SDS011;28709;52.030;5.652;2023-12-29T06:58:04;15.60;;;2.42;;
43088;SDS011;28709;52.030;5.652;2023-12-29T07:00:30;12.90;;;2.35;;
43088;SDS011;28709;52.030;5.652;2023-12-29T07:02:56;12.40;;;3.03;;
43088;SDS011;28709;52.030;5.652;2023-12-29T07:05:21;11.77;;;1.95;;
43088;SDS011;28709;52.030;5.652;2023-12-29T07:07:47;13.75;;;2.20;;
43088;SDS011;28709;52.030;5.652;2023-12-29T07:10:13;14.55;;;1.98;;
43088;SDS011;28709;52.030;5.652;2023-12-29T07:12:40;12.45;;;1.65;;
43088;SDS011;28709;52.030;5.652;2023-12-29T07:15:06;11.27;;;1.75;;
43088;SDS011;28709;52.030;5.652;2023-12-29T07:17:32;10.88;;;1.90;;
43088;SDS011;28709;52.030;5.652;2023-12-29T07:19:58;9.80;;;1.33;;
43088;SDS011;28709;52.030;5.652;2023-12-29T07:22:23;11.20;;;1.70;;
43088;SDS011;28709;52.030;5.652;2023-12-29T07:24:49;10.38;;;2.28;;
43088;SDS011;28709;52.030;5.652;2023-12-29T07:27:14;12.23;;;1.85;;
43088;SDS011;28709;52.030;5.652;2023-12-29T07:29:40;7.07;;;1.77;;
43088;SDS011;28709;52.030;5.652;2023-12-29T07:32:06;11.05;;;1.85;;
43088;SDS011;28709;52.030;5.652;2023-12-29T07:34:32;10.85;;;1.80;;
43088;SDS011;28709;52.030;5.652;2023-12-29T07:36:58;9.18;;;1.60;;
43088;SDS011;28709;52.030;5.652;2023-12-29T07:39:24;10.95;;;1.80;;
43088;SDS011;28709;52.030;5.652;2023-12-29T07:41:49;18.27;;;2.17;;
43088;SDS011;28709;52.030;5.652;2023-12-29T07:44:16;11.57;;;1.92;;
43088;SDS011;28709;52.030;5.652;2023-12-29T07:46:42;12.43;;;1.80;;
43088;SDS011;28709;52.030;5.652;2023-12-29T07:49:08;11.65;;;1.88;;
43088;SDS011;28709;52.030;5.652;2023-12-29T07:51:33;15.38;;;2.47;;
43088;SDS011;28709;52.030;5.652;2023-12-29T07:53:59;13.00;;;2.25;;
43088;SDS011;28709;52.030;5.652;2023-12-29T07:56:25;10.52;;;1.92;;
43088;SDS011;28709;52.030;5.652;2023-12-29T07:58:50;12.00;;;2.00;;
43088;SDS011;28709;52.030;5.652;2023-12-29T08:01:16;15.98;;;2.35;;
43088;SDS011;28709;52.030;5.652;2023-12-29T08:03:42;12.07;;;2.10;;
43088;SDS011;28709;52.030;5.652;2023-12-29T08:06:07;12.70;;;2.40;;
43088;SDS011;28709;52.030;5.652;2023-12-29T08:08:33;11.15;;;1.48;;
43088;SDS011;28709;52.030;5.652;2023-12-29T08:10:59;13.68;;;2.28;;
43088;SDS011;28709;52.030;5.652;2023-12-29T08:13:24;10.32;;;2.00;;
43088;SDS011;28709;52.030;5.652;2023-12-29T08:15:51;9.43;;;1.98;;
43088;SDS011;28709;52.030;5.652;2023-12-29T08:18:16;7.80;;;1.85;;
43088;SDS011;28709;52.030;5.652;2023-12-29T08:20:42;13.20;;;1.75;;
43088;SDS011;28709;52.030;5.652;2023-12-29T08:23:08;10.68;;;2.00;;
43088;SDS011;28709;52.030;5.652;2023-12-29T08:25:34;8.63;;;1.70;;
43088;SDS011;28709;52.030;5.652;2023-12-29T08:28:02;11.75;;;2.28;;
43088;SDS011;28709;52.030;5.652;2023-12-29T08:30:27;7.38;;;1.92;;
43088;SDS011;28709;52.030;5.652;2023-12-29T08:32:53;9.82;;;1.65;;
43088;SDS011;28709;52.030;5.652;2023-12-29T08:35:18;8.35;;;1.85;;
43088;SDS011;28709;52.030;5.652;2023-12-29T08:37:44;11.48;;;1.98;;
43088;SDS011;28709;52.030;5.652;2023-12-29T08:40:10;9.65;;;1.70;;
43088;SDS011;28709;52.030;5.652;2023-12-29T08:42:36;10.18;;;2.22;;
43088;SDS011;28709;52.030;5.652;2023-12-29T08:45:01;8.88;;;2.15;;
43088;SDS011;28709;52.030;5.652;2023-12-29T08:47:28;8.57;;;1.70;;
43088;SDS011;28709;52.030;5.652;2023-12-29T08:49:54;6.45;;;1.40;;
43088;SDS011;28709;52.030;5.652;2023-12-29T08:52:20;6.40;;;1.83;;
43088;SDS011;28709;52.030;5.652;2023-12-29T08:54:45;7.18;;;1.30;;
43088;SDS011;28709;52.030;5.652;2023-12-29T08:57:11;12.30;;;1.70;;
43088;SDS011;28709;52.030;5.652;2023-12-29T08:59:37;6.95;;;1.40;;
43088;SDS011;28709;52.030;5.652;2023-12-29T09:02:03;8.38;;;1.80;;
43088;SDS011;28709;52.030;5.652;2023-12-29T09:04:28;6.00;;;1.45;;
43088;SDS011;28709;52.030;5.652;2023-12-29T09:06:54;12.10;;;1.98;;
43088;SDS011;28709;52.030;5.652;2023-12-29T09:09:20;6.05;;;1.65;;
43088;SDS011;28709;52.030;5.652;2023-12-29T09:11:45;6.90;;;1.33;;
43088;SDS011;28709;52.030;5.652;2023-12-29T09:14:12;6.50;;;1.35;;
43088;SDS011;28709;52.030;5.652;2023-12-29T09:16:38;6.53;;;1.20;;
43088;SDS011;28709;52.030;5.652;2023-12-29T09:19:05;9.90;;;1.80;;
43088;SDS011;28709;52.030;5.652;2023-12-29T09:21:30;16.05;;;1.58;;
43088;SDS011;28709;52.030;5.652;2023-12-29T09:23:56;8.48;;;1.67;;
43088;SDS011;28709;52.030;5.652;2023-12-29T09:26:23;9.50;;;1.83;;
43088;SDS011;28709;52.030;5.652;2023-12-29T09:28:49;6.88;;;1.00;;
43088;SDS011;28709;52.030;5.652;2023-12-29T09:31:14;6.50;;;1.40;;
43088;SDS011;28709;52.030;5.652;2023-12-29T09:33:40;9.48;;;1.70;;
43088;SDS011;28709;52.030;5.652;2023-12-29T09:36:05;12.82;;;1.65;;
43088;SDS011;28709;52.030;5.652;2023-12-29T09:38:31;4.53;;;1.30;;
43088;SDS011;28709;52.030;5.652;2023-12-29T09:40:59;6.80;;;1.65;;
43088;SDS011;28709;52.030;5.652;2023-12-29T09:43:29;4.25;;;1.00;;
43088;SDS011;28709;52.030;5.652;2023-12-29T09:45:57;6.95;;;1.20;;
43088;SDS011;28709;52.030;5.652;2023-12-29T09:48:24;6.68;;;1.50;;
43088;SDS011;28709;52.030;5.652;2023-12-29T09:50:51;5.72;;;1.42;;
43088;SDS011;28709;52.030;5.652;2023-12-29T09:53:19;6.43;;;1.45;;
43088;SDS011;28709;52.030;5.652;2023-12-29T09:55:49;7.47;;;1.80;;
43088;SDS011;28709;52.030;5.652;2023-12-29T09:58:16;4.00;;;1.25;;
43088;SDS011;28709;52.030;5.652;2023-12-29T10:00:44;3.22;;;1.00;;
43088;SDS011;28709;52.030;5.652;2023-12-29T10:03:14;6.65;;;1.10;;
43088;SDS011;28709;52.030;5.652;2023-12-29T10:05:39;10.52;;;1.52;;
43088;SDS011;28709;52.030;5.652;2023-12-29T10:08:05;5.03;;;1.58;;
43088;SDS011;28709;52.030;5.652;2023-12-29T10:10:33;7.63;;;1.20;;
43088;SDS011;28709;52.030;5.652;2023-12-29T10:13:00;4.53;;;1.20;;
43088;SDS011;28709;52.030;5.652;2023-12-29T10:15:37;9.25;;;1.52;;
43088;SDS011;28709;52.030;5.652;2023-12-29T10:26:28;4.75;;;1.38;;
43088;SDS011;28709;52.030;5.652;2023-12-29T10:28:54;4.32;;;1.30;;
43088;SDS011;28709;52.030;5.652;2023-12-29T10:31:22;3.05;;;1.20;;
43088;SDS011;28709;52.030;5.652;2023-12-29T10:33:49;4.03;;;1.08;;
43088;SDS011;28709;52.030;5.652;2023-12-29T10:36:16;4.57;;;1.10;;
43088;SDS011;28709;52.030;5.652;2023-12-29T10:38:42;5.65;;;1.58;;
43088;SDS011;28709;52.030;5.652;2023-12-29T10:41:13;7.20;;;1.27;;
43088;SDS011;28709;52.030;5.652;2023-12-29T10:43:44;3.30;;;0.95;;
43088;SDS011;28709;52.030;5.652;2023-12-29T10:46:12;3.15;;;1.02;;
43088;SDS011;28709;52.030;5.652;2023-12-29T10:48:38;3.03;;;1.02;;
43088;SDS011;28709;52.030;5.652;2023-12-29T10:51:04;3.05;;;0.90;;
43088;SDS011;28709;52.030;5.652;2023-12-29T10:53:34;1.77;;;0.80;;
43088;SDS011;28709;52.030;5.652;2023-12-29T10:56:00;4.95;;;1.10;;
43088;SDS011;28709;52.030;5.652;2023-12-29T10:58:29;5.97;;;1.25;;
43088;SDS011;28709;52.030;5.652;2023-12-29T11:00:58;3.45;;;0.95;;
43088;SDS011;28709;52.030;5.652;2023-12-29T11:03:27;4.60;;;1.27;;
43088;SDS011;28709;52.030;5.652;2023-12-29T11:06:01;6.47;;;1.25;;
43088;SDS011;28709;52.030;5.652;2023-12-29T11:08:27;3.80;;;0.90;;
43088;SDS011;28709;52.030;5.652;2023-12-29T11:10:53;9.15;;;1.80;;
43088;SDS011;28709;52.030;5.652;2023-12-29T11:13:20;5.20;;;1.45;;
43088;SDS011;28709;52.030;5.652;2023-12-29T11:15:46;5.25;;;1.45;;
43088;SDS011;28709;52.030;5.652;2023-12-29T11:18:13;5.38;;;1.23;;
43088;SDS011;28709;52.030;5.652;2023-12-29T11:20:43;7.20;;;1.10;;
43088;SDS011;28709;52.030;5.652;2023-12-29T11:23:10;8.38;;;1.05;;
43088;SDS011;28709;52.030;5.652;2023-12-29T11:25:39;7.90;;;1.20;;
43088;SDS011;28709;52.030;5.652;2023-12-29T11:28:10;8.32;;;2.78;;
43088;SDS011;28709;52.030;5.652;2023-12-29T11:30:38;9.45;;;1.67;;
43088;SDS011;28709;52.030;5.652;2023-12-29T11:33:23;5.40;;;1.23;;
43088;SDS011;28709;52.030;5.652;2023-12-29T11:38:33;5.55;;;1.23;;
43088;SDS011;28709;52.030;5.652;2023-12-29T11:41:08;8.80;;;1.52;;
43088;SDS011;28709;52.030;5.652;2023-12-29T11:43:35;8.80;;;1.38;;
43088;SDS011;28709;52.030;5.652;2023-12-29T11:46:02;5.10;;;1.40;;
43088;SDS011;28709;52.030;5.652;2023-12-29T11:54:01;3.15;;;1.10;;
43088;SDS011;28709;52.030;5.652;2023-12-29T11:56:32;6.55;;;1.15;;
43088;SDS011;28709;52.030;5.652;2023-12-29T11:59:14;8.32;;;1.38;;
43088;SDS011;28709;52.030;5.652;2023-12-29T12:01:42;9.65;;;1.50;;
43088;SDS011;28709;52.030;5.652;2023-12-29T12:12:48;6.80;;;1.30;;
43088;SDS011;28709;52.030;5.652;2023-12-29T12:17:58;6.72;;;1.20;;
43088;SDS011;28709;52.030;5.652;2023-12-29T12:20:24;10.82;;;1.77;;
43088;SDS011;28709;52.030;5.652;2023-12-29T12:23:01;6.13;;;1.30;;
43088;SDS011;28709;52.030;5.652;2023-12-29T12:25:37;6.15;;;1.63;;
43088;SDS011;28709;52.030;5.652;2023-12-29T12:28:08;14.52;;;2.05;;
43088;SDS011;28709;52.030;5.652;2023-12-29T12:30:35;7.90;;;1.83;;
43088;SDS011;28709;52.030;5.652;2023-12-29T12:33:01;7.30;;;1.73;;
43088;SDS011;28709;52.030;5.652;2023-12-29T12:35:28;16.85;;;2.20;;
43088;SDS011;28709;52.030;5.652;2023-12-29T12:40:39;13.07;;;2.55;;
43088;SDS011;28709;52.030;5.652;2023-12-29T12:43:05;9.52;;;1.75;;
43088;SDS011;28709;52.030;5.652;2023-12-29T12:45:42;18.40;;;2.53;;
43088;SDS011;28709;52.030;5.652;2023-12-29T12:50:53;13.52;;;1.77;;
43088;SDS011;28709;52.030;5.652;2023-12-29T12:53:21;11.77;;;1.90;;
43088;SDS011;28709;52.030;5.652;2023-12-29T12:55:48;12.93;;;2.08;;
43088;SDS011;28709;52.030;5.652;2023-12-29T12:58:18;11.63;;;2.28;;
43088;SDS011;28709;52.030;5.652;2023-12-29T13:00:45;11.52;;;1.92;;
43088;SDS011;28709;52.030;5.652;2023-12-29T13:03:12;7.40;;;2.05;;
43088;SDS011;28709;52.030;5.652;2023-12-29T13:05:38;12.82;;;1.65;;
43088;SDS011;28709;52.030;5.652;2023-12-29T13:08:05;11.43;;;2.08;;
43088;SDS011;28709;52.030;5.652;2023-12-29T13:10:31;12.52;;;2.00;;
43088;SDS011;28709;52.030;5.652;2023-12-29T13:12:57;17.77;;;2.90;;
43088;SDS011;28709;52.030;5.652;2023-12-29T13:15:23;16.55;;;2.50;;
43088;SDS011;28709;52.030;5.652;2023-12-29T13:17:51;13.85;;;1.85;;
43088;SDS011;28709;52.030;5.652;2023-12-29T13:20:18;13.38;;;2.70;;
43088;SDS011;28709;52.030;5.652;2023-12-29T13:22:46;14.63;;;2.15;;
43088;SDS011;28709;52.030;5.652;2023-12-29T13:25:15;15.05;;;2.17;;
43088;SDS011;28709;52.030;5.652;2023-12-29T13:27:49;12.73;;;2.28;;
43088;SDS011;28709;52.030;5.652;2023-12-29T13:30:15;13.95;;;2.20;;
43088;SDS011;28709;52.030;5.652;2023-12-29T13:32:41;8.93;;;2.30;;
43088;SDS011;28709;52.030;5.652;2023-12-29T13:38:05;12.70;;;2.38;;
43088;SDS011;28709;52.030;5.652;2023-12-29T13:40:42;13.10;;;2.47;;
43088;SDS011;28709;52.030;5.652;2023-12-29T13:43:18;19.77;;;3.05;;
43088;SDS011;28709;52.030;5.652;2023-12-29T13:45:46;8.13;;;1.90;;
43088;SDS011;28709;52.030;5.652;2023-12-29T13:48:12;14.23;;;2.20;;
43088;SDS011;28709;52.030;5.652;2023-12-29T13:50:39;10.07;;;1.80;;
43088;SDS011;28709;52.030;5.652;2023-12-29T13:53:15;11.57;;;2.30;;
43088;SDS011;28709;52.030;5.652;2023-12-29T13:55:44;12.52;;;2.00;;
43088;SDS011;28709;52.030;5.652;2023-12-29T13:58:10;9.50;;;1.98;;
43088;SDS011;28709;52.030;5.652;2023-12-29T14:00:36;15.77;;;2.33;;
43088;SDS011;28709;52.030;5.652;2023-12-29T14:06:11;16.52;;;2.15;;
43088;SDS011;28709;52.030;5.652;2023-12-29T14:08:45;14.80;;;2.28;;
43088;SDS011;28709;52.030;5.652;2023-12-29T14:11:11;16.42;;;2.90;;
43088;SDS011;28709;52.030;5.652;2023-12-29T14:13:46;12.25;;;2.47;;
43088;SDS011;28709;52.030;5.652;2023-12-29T14:16:14;14.93;;;3.10;;
43088;SDS011;28709;52.030;5.652;2023-12-29T14:26:24;15.20;;;2.42;;
43088;SDS011;28709;52.030;5.652;2023-12-29T14:29:00;14.60;;;2.20;;
43088;SDS011;28709;52.030;5.652;2023-12-29T14:31:26;12.07;;;2.10;;
43088;SDS011;28709;52.030;5.652;2023-12-29T14:33:52;17.58;;;2.38;;
43088;SDS011;28709;52.030;5.652;2023-12-29T14:36:17;13.05;;;2.38;;
43088;SDS011;28709;52.030;5.652;2023-12-29T14:38:43;23.60;;;3.78;;
43088;SDS011;28709;52.030;5.652;2023-12-29T14:41:09;15.02;;;2.38;;
43088;SDS011;28709;52.030;5.652;2023-12-29T14:43:34;20.55;;;3.03;;
43088;SDS011;28709;52.030;5.652;2023-12-29T14:46:00;11.48;;;2.28;;
43088;SDS011;28709;52.030;5.652;2023-12-29T14:48:25;11.30;;;2.63;;
43088;SDS011;28709;52.030;5.652;2023-12-29T14:50:51;15.38;;;2.50;;
43088;SDS011;28709;52.030;5.652;2023-12-29T14:53:17;15.77;;;2.72;;
43088;SDS011;28709;52.030;5.652;2023-12-29T14:55:42;15.07;;;2.10;;
43088;SDS011;28709;52.030;5.652;2023-12-29T14:58:09;10.60;;;2.47;;
43088;SDS011;28709;52.030;5.652;2023-12-29T15:00:35;7.57;;;1.42;;
43088;SDS011;28709;52.030;5.652;2023-12-29T15:03:01;9.88;;;1.98;;
43088;SDS011;28709;52.030;5.652;2023-12-29T15:05:26;11.70;;;1.45;;
43088;SDS011;28709;52.030;5.652;2023-12-29T15:07:52;5.90;;;1.08;;
43088;SDS011;28709;52.030;5.652;2023-12-29T15:10:17;6.43;;;1.20;;
43088;SDS011;28709;52.030;5.652;2023-12-29T15:12:43;6.60;;;1.40;;
43088;SDS011;28709;52.030;5.652;2023-12-29T15:15:09;4.97;;;1.20;;
43088;SDS011;28709;52.030;5.652;2023-12-29T15:17:38;9.68;;;1.30;;
43088;SDS011;28709;52.030;5.652;2023-12-29T15:20:04;6.55;;;1.58;;
43088;SDS011;28709;52.030;5.652;2023-12-29T15:22:31;11.80;;;1.25;;
43088;SDS011;28709;52.030;5.652;2023-12-29T15:24:57;5.90;;;1.50;;
43088;SDS011;28709;52.030;5.652;2023-12-29T15:27:22;8.05;;;2.35;;